Time;durP1;ratioP1;P1;durP2;ratioP2;P2;SDS_P1;SDS_P2;PMS_P1;PMS_P2;Temp;Humidity;BMP_temperature;BMP_pressure;BME280_temperature;BME280_humidity;BME280_pressure;Samples;Min_cycle;Max_cycle;Signal;HPM_P1;HPM_P2
2021/05/11 00:01:13;;;;;;;6.45;1.95;;;;;;;15.14;66.52;99456.31;5053640;28;20049;-77
2021/05/11 00:03:43;;;;;;;6.38;1.70;;;;;;;15.11;67.06;99465.50;5053712;28;20049;-75
2021/05/11 00:06:10;;;;;;;7.72;1.85;;;;;;;15.15;66.96;99455.31;5053600;28;20442;-78
2021/05/11 00:08:37;;;;;;;5.00;2.30;;;;;;;14.99;67.50;99451.31;5053792;28;20041;-74
2021/05/11 00:11:04;;;;;;;5.57;2.20;;;;;;;15.09;68.13;99458.56;5057601;28;20052;-72
2021/05/11 00:13:32;;;;;;;5.20;1.80;;;;;;;15.05;68.51;99460.69;5061649;28;20087;-76
2021/05/11 00:15:59;;;;;;;5.47;1.85;;;;;;;14.89;69.00;99445.97;5063897;28;20045;-72
2021/05/11 00:18:26;;;;;;;4.88;2.20;;;;;;;14.94;69.16;99459.81;5044955;28;20080;-73
2021/05/11 00:20:53;;;;;;;4.88;2.30;;;;;;;15.01;69.65;99462.81;5035418;28;20053;-75
2021/05/11 00:23:19;;;;;;;3.50;1.75;;;;;;;14.88;70.47;99459.53;5035749;28;20053;-75
2021/05/11 00:25:55;;;;;;;4.22;2.10;;;;;;;14.82;70.70;99452.03;5035544;28;20141;-74
2021/05/11 00:28:25;;;;;;;4.60;1.90;;;;;;;14.80;71.94;99460.22;5035665;28;20382;-76
2021/05/11 00:30:54;;;;;;;4.47;2.00;;;;;;;14.56;74.17;99455.19;5034466;28;20057;-75
2021/05/11 00:33:26;;;;;;;6.30;2.33;;;;;;;14.40;75.32;99441.28;5037481;28;20064;-77
2021/05/11 00:35:52;;;;;;;4.30;2.03;;;;;;;14.38;75.28;99459.38;5038448;28;20064;-77
2021/05/11 00:38:19;;;;;;;4.18;2.20;;;;;;;14.29;78.07;99459.34;5038640;28;20053;-75
2021/05/11 00:40:47;;;;;;;4.38;2.45;;;;;;;14.23;79.21;99456.19;5039002;28;20049;-75
2021/05/11 00:43:14;;;;;;;4.57;2.38;;;;;;;14.13;78.40;99456.16;5037539;28;20077;-78
2021/05/11 00:45:40;;;;;;;5.20;2.35;;;;;;;14.08;79.83;99457.53;5038338;28;20057;-77
2021/05/11 00:48:07;;;;;;;6.00;2.25;;;;;;;14.01;79.34;99448.34;5038432;28;20111;-78
2021/05/11 00:50:36;;;;;;;5.75;2.42;;;;;;;13.93;79.70;99439.13;5037383;28;20083;-78
2021/05/11 00:53:06;;;;;;;8.57;3.03;;;;;;;13.98;80.61;99442.25;5038014;28;20132;-75
2021/05/11 00:55:33;;;;;;;5.03;2.67;;;;;;;14.03;79.86;99438.31;5038335;28;20504;-79
2021/05/11 00:58:00;;;;;;;4.53;2.15;;;;;;;13.97;80.12;99439.69;5038119;28;20056;-76
2021/05/11 01:00:33;;;;;;;6.35;2.50;;;;;;;13.93;80.43;99431.06;5039064;28;20107;-76
2021/05/11 01:03:00;;;;;;;6.25;2.50;;;;;;;13.92;81.06;99434.75;5038128;28;20493;-75
2021/05/11 01:05:28;;;;;;;6.30;2.45;;;;;;;13.93;80.22;99443.63;5037821;28;20067;-75
2021/05/11 01:07:57;;;;;;;8.80;2.63;;;;;;;13.86;80.93;99451.38;5038822;28;20054;-73
2021/05/11 01:10:26;;;;;;;6.15;2.45;;;;;;;13.86;80.96;99440.63;5036556;28;20421;-74
2021/05/11 01:12:52;;;;;;;4.15;2.08;;;;;;;13.91;80.44;99451.81;5050771;28;20053;-74
2021/05/11 01:15:19;;;;;;;4.32;2.20;;;;;;;13.82;81.64;99433.81;5055415;28;20369;-79
2021/05/11 01:17:58;;;;;;;7.13;2.90;;;;;;;13.90;80.24;99442.06;5049865;28;20056;-75
2021/05/11 01:20:46;;;;;;;6.00;2.42;;;;;;;13.97;79.77;99451.31;5037862;28;20080;-75
2021/05/11 01:23:54;;;;;;;4.70;2.30;;;;;;;13.94;79.77;99448.03;5040562;28;20059;-74
2021/05/11 01:26:40;;;;;;;4.38;2.40;;;;;;;13.74;81.00;99423.78;5059454;28;20059;-75
2021/05/11 01:29:17;;;;;;;4.07;2.13;;;;;;;13.87;80.44;99449.53;5058338;28;20330;-76
2021/05/11 02:23:13;;;;;;;5.63;2.60;;;;;;;13.82;80.29;99440.06;5036097;28;20049;-74
2021/05/11 02:25:39;;;;;;;5.03;2.20;;;;;;;13.94;80.59;99448.03;5036419;28;20049;-77
2021/05/11 02:28:06;;;;;;;3.83;2.33;;;;;;;13.92;80.48;99440.09;5035654;28;20056;-75
2021/05/11 02:30:32;;;;;;;7.00;2.80;;;;;;;13.93;80.53;99449.84;5036409;28;20057;-75
2021/05/11 02:32:58;;;;;;;5.13;2.55;;;;;;;14.03;80.21;99441.00;5036979;28;20060;-77
2021/05/11 02:35:24;;;;;;;4.03;2.55;;;;;;;14.08;80.23;99434.25;5040563;28;20049;-75
2021/05/11 02:37:50;;;;;;;4.85;2.67;;;;;;;13.95;79.80;99433.63;5044330;28;20060;-72
2021/05/11 02:40:20;;;;;;;6.75;2.80;;;;;;;14.01;80.19;99432.22;5042018;28;20060;-72
2021/05/11 02:42:49;;;;;;;6.22;3.30;;;;;;;13.96;80.72;99443.38;5041809;28;20112;-74
2021/05/11 02:45:16;;;;;;;7.80;2.63;;;;;;;13.95;80.41;99437.16;5034883;28;20064;-74
2021/05/11 02:47:49;;;;;;;4.70;2.20;;;;;;;14.07;80.23;99445.13;5035653;28;20054;-76
2021/05/11 02:50:20;;;;;;;3.97;2.10;;;;;;;13.99;80.36;99449.31;5034734;28;20063;-76
2021/05/11 02:52:49;;;;;;;3.00;2.15;;;;;;;13.98;79.93;99450.31;5035330;28;20060;-74
2021/05/11 02:55:17;;;;;;;5.97;2.05;;;;;;;14.01;79.95;99451.88;5033278;28;20049;-75
2021/05/11 02:57:44;;;;;;;7.28;2.47;;;;;;;13.89;79.74;99443.03;5035159;28;20065;-76
2021/05/11 03:00:12;;;;;;;7.32;2.60;;;;;;;14.02;79.46;99455.41;5035061;28;20049;-73
2021/05/11 03:02:38;;;;;;;4.93;2.28;;;;;;;13.98;78.95;99450.31;5034795;28;20457;-76
2021/05/11 03:05:06;;;;;;;4.30;2.45;;;;;;;13.92;80.02;99448.16;5034054;28;20063;-77
2021/05/11 03:07:33;;;;;;;8.15;2.55;;;;;;;13.93;80.22;99444.50;5035223;28;20162;-76
2021/05/11 03:10:06;;;;;;;6.38;2.60;;;;;;;13.82;81.23;99437.38;5033574;28;20042;-73
2021/05/11 03:12:33;;;;;;;5.18;2.00;;;;;;;13.91;80.65;99441.09;5035516;28;20439;-77
2021/05/11 03:15:09;;;;;;;5.45;2.50;;;;;;;13.84;81.35;99440.75;5035008;28;20062;-75
2021/05/11 03:17:36;;;;;;;5.32;1.95;;;;;;;13.80;81.66;99438.47;5039707;28;20060;-74
2021/05/11 03:20:05;;;;;;;5.88;2.58;;;;;;;13.75;82.04;99430.84;5054925;28;20045;-74
2021/05/11 03:22:32;;;;;;;5.78;2.20;;;;;;;13.78;81.47;99443.13;5053366;28;20049;-74
2021/05/11 03:24:58;;;;;;;5.55;2.20;;;;;;;13.81;81.88;99442.88;5056272;28;20055;-76
2021/05/11 03:27:24;;;;;;;6.18;2.03;;;;;;;13.81;81.98;99445.53;5055159;28;20437;-77
2021/05/11 03:29:50;;;;;;;6.97;2.72;;;;;;;13.77;81.76;99441.44;5054995;28;20408;-76
2021/05/11 03:32:17;;;;;;;5.75;2.13;;;;;;;13.81;82.41;99448.22;5054755;28;20056;-76
2021/05/11 03:34:43;;;;;;;3.38;1.60;;;;;;;13.73;82.22;99448.88;5055523;28;20053;-73
2021/05/11 03:37:09;;;;;;;3.10;1.85;;;;;;;13.75;82.29;99454.13;5055465;28;20055;-76
2021/05/11 03:39:40;;;;;;;4.03;1.90;;;;;;;13.71;82.14;99456.22;5054758;28;20311;-75
2021/05/11 03:42:18;;;;;;;5.68;2.08;;;;;;;13.75;82.70;99456.78;5054804;28;20122;-77
2021/05/11 03:44:48;;;;;;;5.38;1.63;;;;;;;13.68;82.60;99451.97;5053466;28;20087;-77
2021/05/11 03:47:16;;;;;;;5.32;2.05;;;;;;;13.80;82.27;99451.91;5054894;28;20048;-77
2021/05/11 03:49:43;;;;;;;7.80;1.77;;;;;;;13.84;81.96;99464.91;5054195;28;20136;-76
2021/05/11 03:52:09;;;;;;;4.40;1.60;;;;;;;13.79;82.25;99464.44;5055023;28;20044;-74
2021/05/11 03:54:36;;;;;;;3.45;2.00;;;;;;;13.82;82.84;99469.56;5053528;28;20453;-73
2021/05/11 03:57:05;;;;;;;7.35;2.42;;;;;;;13.90;82.04;99466.19;5054326;28;20381;-72
2021/05/11 03:59:32;;;;;;;6.38;2.30;;;;;;;13.85;82.30;99468.44;5053745;28;20056;-73
2021/05/11 04:01:59;;;;;;;6.80;3.05;;;;;;;13.91;82.43;99467.91;5054780;28;20086;-73
2021/05/11 04:04:26;;;;;;;6.65;2.45;;;;;;;13.88;82.55;99464.66;5053613;28;20099;-76
2021/05/11 04:06:52;;;;;;;5.35;2.80;;;;;;;13.86;83.36;99464.78;5055347;28;20068;-75
2021/05/11 04:09:33;;;;;;;5.32;2.50;;;;;;;13.87;83.50;99471.84;5058288;28;20117;-73
2021/05/11 04:17:14;;;;;;;6.13;2.72;;;;;;;13.80;84.09;99473.34;5056039;28;20065;-76
2021/05/11 04:19:41;;;;;;;8.02;3.10;;;;;;;13.76;85.08;99475.44;5037691;28;20168;-73
2021/05/11 04:22:07;;;;;;;6.10;2.83;;;;;;;13.66;85.00;99470.03;5038058;28;20050;-78
2021/05/11 04:24:34;;;;;;;6.03;3.35;;;;;;;13.74;84.85;99477.41;5037848;28;20053;-75
2021/05/11 04:27:00;;;;;;;4.95;2.70;;;;;;;13.64;85.45;99481.84;5037978;28;20056;-72
2021/05/11 04:29:28;;;;;;;5.82;3.10;;;;;;;13.48;86.57;99477.78;5037596;28;20046;-74
2021/05/11 04:31:54;;;;;;;7.07;3.40;;;;;;;13.43;87.30;99474.63;5037784;28;20053;-75
2021/05/11 04:34:21;;;;;;;7.97;3.80;;;;;;;13.29;87.77;99465.06;5037852;28;20049;-74
2021/05/11 04:36:48;;;;;;;5.18;3.30;;;;;;;13.34;87.99;99467.34;5037840;28;20049;-73
2021/05/11 04:39:15;;;;;;;7.05;3.70;;;;;;;13.32;88.66;99467.47;5036504;28;20053;-75
2021/05/11 04:41:42;;;;;;;4.97;3.20;;;;;;;13.24;88.96;99476.16;5036113;28;20065;-75
2021/05/11 04:44:08;;;;;;;6.18;3.33;;;;;;;13.21;89.92;99475.56;5037673;28;20057;-75
2021/05/11 04:47:20;;;;;;;6.65;3.10;;;;;;;13.16;90.56;99479.50;5036781;28;20053;-73
2021/05/11 04:49:26;;;;;;;10.63;3.60;;;;;;;13.17;91.14;99483.00;5034650;28;20060;-75
2021/05/11 04:51:53;;;;;;;13.05;4.38;;;;;;;13.01;92.63;99484.28;5037586;28;20057;-76
2021/05/11 04:54:20;;;;;;;20.58;4.70;;;;;;;12.84;94.83;99482.97;5049688;28;20049;-74
2021/05/11 04:56:47;;;;;;;11.85;3.70;;;;;;;12.66;94.54;99496.03;5057682;28;20186;-74
2021/05/11 04:59:14;;;;;;;20.48;3.95;;;;;;;12.57;95.88;99489.59;5038753;28;20111;-76
2021/05/11 05:01:44;;;;;;;16.10;3.80;;;;;;;12.50;97.34;99494.56;5057630;28;20052;-74
2021/05/11 05:04:12;;;;;;;7.90;3.30;;;;;;;12.41;97.97;99484.63;5058021;28;20079;-76
2021/05/11 05:06:39;;;;;;;9.82;3.20;;;;;;;12.42;99.29;99482.81;5057055;28;20422;-77
2021/05/11 05:09:06;;;;;;;11.20;4.05;;;;;;;12.49;99.87;99478.66;5057296;28;20110;-75
2021/05/11 05:11:40;;;;;;;11.57;3.58;;;;;;;12.43;99.52;99481.81;5057363;28;20060;-74
2021/05/11 05:14:10;;;;;;;9.35;2.95;;;;;;;12.34;99.42;99470.88;5057259;28;20080;-73
2021/05/11 05:16:39;;;;;;;13.20;3.53;;;;;;;12.42;100.00;99466.75;5056794;28;20144;-75
2021/05/11 05:19:06;;;;;;;9.85;3.70;;;;;;;12.40;99.77;99460.63;5055306;28;20053;-74
2021/05/11 05:21:33;;;;;;;8.13;3.10;;;;;;;12.52;99.99;99464.19;5056950;28;20441;-74
2021/05/11 05:24:04;;;;;;;12.13;3.53;;;;;;;12.54;100.00;99464.91;5057106;28;20075;-75
2021/05/11 05:26:31;;;;;;;11.93;3.20;;;;;;;12.50;99.17;99453.59;5056859;28;20049;-75
2021/05/11 05:28:58;;;;;;;11.55;3.47;;;;;;;12.56;98.91;99462.94;5056400;28;20053;-75
2021/05/11 05:31:29;;;;;;;8.83;3.67;;;;;;;12.52;99.04;99456.97;5056425;28;20496;-74
2021/05/11 05:33:56;;;;;;;11.75;3.38;;;;;;;12.60;98.86;99462.56;5056523;28;20290;-74
2021/05/11 05:36:23;;;;;;;14.70;3.80;;;;;;;12.61;98.46;99458.94;5056659;28;20048;-74
2021/05/11 05:38:50;;;;;;;15.88;4.82;;;;;;;12.46;98.12;99433.38;5056484;28;20056;-74
2021/05/11 05:41:24;;;;;;;11.88;3.90;;;;;;;12.63;97.99;99456.13;5056583;28;20049;-74
2021/05/11 05:43:51;;;;;;;13.95;3.90;;;;;;;12.64;97.39;99452.47;5056262;28;20068;-75
2021/05/11 05:46:18;;;;;;;10.02;3.83;;;;;;;12.77;97.29;99449.66;5056239;28;20381;-74
2021/05/11 05:48:46;;;;;;;12.48;3.72;;;;;;;12.77;97.91;99445.13;5055406;28;20351;-76
2021/05/11 05:51:14;;;;;;;10.77;3.17;;;;;;;12.88;97.18;99448.75;5038764;28;20112;-73
2021/05/11 05:53:43;;;;;;;8.55;2.58;;;;;;;12.89;97.88;99445.97;5056328;28;20060;-75
2021/05/11 05:56:13;;;;;;;10.23;2.65;;;;;;;12.89;97.64;99434.38;5055893;28;20418;-76
2021/05/11 05:58:39;;;;;;;8.43;2.30;;;;;;;12.93;96.95;99437.66;5048085;28;20056;-81
2021/05/11 06:01:08;;;;;;;6.55;2.40;;;;;;;12.96;96.23;99426.72;5040188;28;20052;-78
2021/05/11 06:06:08;;;;;;;5.72;1.83;;;;;;;12.99;95.79;99427.31;5040256;28;20049;-79
2021/05/11 06:08:37;;;;;;;7.13;2.00;;;;;;;13.02;96.46;99424.34;5036210;28;20046;-78
2021/05/11 06:11:20;;;;;;;4.60;2.00;;;;;;;13.12;96.06;99437.84;5035519;28;20045;-79
2021/05/11 06:19:05;;;;;;;9.68;2.78;;;;;;;13.23;94.93;99418.19;5054614;28;20346;-74
2021/05/11 06:21:33;;;;;;;8.10;3.33;;;;;;;13.35;94.94;99418.97;5036932;28;20110;-73
2021/05/11 06:24:00;;;;;;;5.53;3.65;;;;;;;13.30;94.85;99418.53;5055305;28;20148;-78
2021/05/11 06:26:27;;;;;;;9.48;4.63;;;;;;;13.44;94.39;99423.56;5050212;28;20679;-77
2021/05/11 06:28:55;;;;;;;10.02;4.95;;;;;;;13.39;95.45;99427.59;5040027;28;20069;-79
2021/05/11 06:31:22;;;;;;;9.40;4.72;;;;;;;13.45;95.29;99419.03;5056839;28;20156;-81
2021/05/11 06:33:52;;;;;;;9.35;4.55;;;;;;;13.57;96.68;99427.91;5056784;28;20053;-78
2021/05/11 06:36:19;;;;;;;8.23;3.70;;;;;;;13.50;95.73;99406.13;5057034;28;20391;-83
2021/05/11 06:38:51;;;;;;;6.10;2.72;;;;;;;13.63;94.19;99418.50;5056081;28;20045;-77
2021/05/11 06:41:17;;;;;;;10.20;3.05;;;;;;;13.71;94.62;99430.25;5038544;28;20045;-73
2021/05/11 06:43:45;;;;;;;8.23;2.65;;;;;;;13.65;93.23;99414.69;5034727;28;20053;-73
2021/05/11 06:48:53;;;;;;;6.60;1.60;;;;;;;13.68;91.92;99418.94;5034334;28;20045;-76
2021/05/11 06:53:54;;;;;;;3.63;1.63;;;;;;;13.60;93.28;99419.59;5054469;28;20107;-71
2021/05/11 06:56:22;;;;;;;4.38;1.25;;;;;;;13.59;94.00;99415.22;5053619;28;20049;-75
2021/05/11 06:58:49;;;;;;;4.18;1.00;;;;;;;13.53;90.46;99415.75;5054705;28;20049;-74
2021/05/11 07:01:21;;;;;;;4.88;1.13;;;;;;;13.53;93.00;99410.38;5054588;28;20052;-73
2021/05/11 07:03:48;;;;;;;2.72;0.95;;;;;;;13.55;93.26;99413.78;5055189;28;20060;-72
2021/05/11 07:06:17;;;;;;;4.70;1.23;;;;;;;13.69;92.68;99413.44;5055153;28;20411;-72
2021/05/11 07:08:51;;;;;;;4.18;1.23;;;;;;;13.79;90.14;99418.00;5055368;28;20064;-73
2021/05/11 07:13:49;;;;;;;4.95;1.52;;;;;;;13.81;90.81;99421.41;5054921;28;20083;-74
2021/05/11 07:16:16;;;;;;;4.32;1.17;;;;;;;13.79;91.42;99412.66;5053976;28;20056;-72
2021/05/11 07:18:46;;;;;;;4.00;1.60;;;;;;;13.75;93.10;99419.25;5040598;28;20144;-75
2021/05/11 07:21:13;;;;;;;3.97;1.40;;;;;;;13.88;91.79;99422.56;5047284;28;20094;-73
2021/05/11 07:23:40;;;;;;;3.22;1.38;;;;;;;13.91;90.69;99421.47;5053808;28;20052;-75
2021/05/11 07:26:12;;;;;;;4.10;1.52;;;;;;;13.79;90.91;99400.06;5054369;28;20053;-77
2021/05/11 07:31:16;;;;;;;2.67;1.30;;;;;;;14.01;89.85;99427.72;5055232;28;20049;-77
2021/05/11 07:36:12;;;;;;;5.32;2.15;;;;;;;14.12;90.18;99426.78;5052529;28;20057;-74
2021/05/11 07:38:40;;;;;;;6.88;1.70;;;;;;;14.23;92.01;99439.25;5055110;28;20095;-74
2021/05/11 07:41:08;;;;;;;6.30;1.40;;;;;;;14.30;89.61;99447.59;5055640;28;20057;-74
2021/05/11 07:43:38;;;;;;;6.82;2.00;;;;;;;14.30;89.10;99439.56;5059767;28;20088;-75
2021/05/11 08:18:09;;;;;;;4.80;1.95;;;;;;;14.36;87.49;99428.28;5050318;28;20147;-73
2021/05/11 08:28:55;;;;;;;3.40;1.80;;;;;;;14.37;87.65;99435.34;5057586;28;20124;-73
2021/05/11 08:31:22;;;;;;;4.38;2.10;;;;;;;14.40;88.30;99440.44;5058048;28;20102;-72
2021/05/11 08:33:49;;;;;;;4.47;1.80;;;;;;;14.32;90.31;99442.97;5040240;28;20052;-72
2021/05/11 08:36:15;;;;;;;7.25;2.10;;;;;;;14.32;90.11;99445.66;5056676;28;20057;-72
2021/05/11 08:38:42;;;;;;;3.90;1.50;;;;;;;14.43;87.57;99450.91;5056681;28;20056;-72
2021/05/11 08:41:09;;;;;;;5.28;1.80;;;;;;;14.35;87.88;99450.75;5057577;28;20049;-72
2021/05/11 08:43:37;;;;;;;6.20;1.50;;;;;;;14.32;85.22;99448.34;5057797;28;20056;-72
2021/05/11 08:46:09;;;;;;;2.60;1.60;;;;;;;14.29;87.03;99451.28;5057007;28;20107;-72
2021/05/11 08:48:36;;;;;;;5.38;2.10;;;;;;;14.24;87.95;99452.56;5058045;28;20153;-73
2021/05/11 08:51:10;;;;;;;3.53;2.15;;;;;;;14.22;88.06;99445.63;5056464;28;20044;-73
2021/05/11 09:05:09;;;;;;;5.15;2.50;;;;;;;14.04;91.17;99438.19;5057568;28;20199;-75
2021/05/11 09:16:43;;;;;;;5.80;2.10;;;;;;;14.17;90.60;99437.13;5056930;28;20067;-76
2021/05/11 10:46:59;;;;;;;5.88;1.83;;;;;;;15.47;73.40;99392.31;5055443;28;20095;-72
2021/05/11 10:49:34;;;;;;;5.55;1.70;;;;;;;15.50;74.29;99392.03;5055241;28;20709;-72
2021/05/11 10:52:30;;;;;;;5.57;1.80;;;;;;;15.39;75.25;99390.34;5054723;28;20140;-72
2021/05/11 10:55:25;;;;;;;5.10;1.88;;;;;;;15.36;76.49;99387.94;5055373;28;20114;-75
2021/05/11 10:57:57;;;;;;;7.72;1.77;;;;;;;15.33;77.36;99380.19;5055241;28;20056;-71
2021/05/11 11:00:33;;;;;;;7.28;2.25;;;;;;;15.44;75.29;99381.84;5053623;28;20305;-72
2021/05/11 11:03:15;;;;;;;9.85;2.05;;;;;;;15.45;76.29;99380.84;5054585;28;20064;-73
2021/05/11 11:05:52;;;;;;;4.45;1.58;;;;;;;15.45;75.81;99386.22;5055128;28;20136;-72
2021/05/11 11:08:39;;;;;;;6.32;1.65;;;;;;;15.41;75.14;99391.06;5053706;28;20056;-72
2021/05/11 11:11:19;;;;;;;5.97;1.88;;;;;;;15.27;75.45;99394.19;5053585;28;20049;-72
2021/05/11 11:13:48;;;;;;;6.72;1.73;;;;;;;15.33;76.69;99407.94;5054470;28;20154;-72
2021/05/11 11:16:16;;;;;;;5.35;2.00;;;;;;;15.39;77.05;99406.50;5053847;28;20080;-72
2021/05/11 11:18:46;;;;;;;5.93;1.67;;;;;;;15.38;74.71;99407.50;5039594;28;20451;-72
2021/05/11 11:23:57;;;;;;;6.50;2.20;;;;;;;15.36;78.73;99403.25;5034974;28;20057;-72
2021/05/11 11:26:30;;;;;;;9.27;2.35;;;;;;;15.29;76.75;99398.44;5045058;28;20086;-72
2021/05/11 11:29:04;;;;;;;3.65;1.95;;;;;;;15.38;76.29;99409.31;5050233;28;20049;-72
2021/05/11 11:31:39;;;;;;;6.63;1.92;;;;;;;15.47;74.98;99411.13;5053590;28;20116;-72
2021/05/11 11:34:24;;;;;;;3.88;1.95;;;;;;;15.44;75.88;99403.38;5054481;28;20112;-72
2021/05/11 11:37:00;;;;;;;5.53;2.45;;;;;;;15.42;77.93;99405.34;5054773;28;20049;-72
2021/05/11 11:39:35;;;;;;;7.78;2.28;;;;;;;15.44;76.99;99411.44;5053994;28;20434;-72
2021/05/11 11:42:04;;;;;;;7.10;2.22;;;;;;;15.45;75.02;99413.13;5040000;28;20045;-72
2021/05/11 11:44:37;;;;;;;4.97;2.10;;;;;;;15.45;77.30;99413.13;5051341;28;20132;-72
2021/05/11 11:47:05;;;;;;;6.68;2.15;;;;;;;15.38;76.09;99412.00;5044928;28;20065;-72
2021/05/11 11:49:36;;;;;;;4.60;2.13;;;;;;;15.46;76.49;99422.88;5033865;28;20053;-72
2021/05/11 11:54:39;;;;;;;3.90;2.00;;;;;;;15.53;75.65;99415.09;5034664;28;20087;-73
2021/05/11 12:00:15;;;;;;;7.70;2.08;;;;;;;15.60;73.65;99403.59;5034549;28;20049;-73
2021/05/11 12:02:59;;;;;;;;;;;;;;;15.77;75.94;99395.78;5035151;28;20076;-73
2021/05/11 12:05:31;;;;;;;4.60;1.88;;;;;;;15.91;74.69;99397.13;5034244;28;19921;-73
2021/05/11 12:10:49;;;;;;;3.45;1.30;;;;;;;16.26;73.85;99394.78;5053889;28;20076;-73
2021/05/11 12:13:22;;;;;;;3.72;1.65;;;;;;;16.41;70.61;99384.34;5053797;28;20052;-73
2021/05/11 12:16:11;;;;;;;5.60;1.58;;;;;;;16.48;70.53;99400.75;5054148;28;20059;-74
2021/05/11 12:21:30;;;;;;;3.40;1.30;;;;;;;16.45;69.73;99409.13;5045387;28;20397;-73
2021/05/11 12:24:10;;;;;;;5.43;1.70;;;;;;;16.60;71.30;99406.78;5054262;28;20498;-73
2021/05/11 12:26:40;;;;;;;4.57;1.92;;;;;;;16.47;68.47;99399.91;5054404;28;20048;-73
2021/05/11 12:29:14;;;;;;;9.20;1.88;;;;;;;16.64;69.91;99410.84;5055742;28;20079;-74
2021/05/11 12:31:45;;;;;;;6.15;2.50;;;;;;;16.63;68.80;99415.41;5057396;28;20053;-73
2021/05/11 12:34:24;;;;;;;4.47;1.75;;;;;;;16.70;69.19;99421.88;5057835;28;20049;-73
2021/05/11 12:37:01;;;;;;;6.22;2.50;;;;;;;16.55;68.45;99429.63;5057768;28;20053;-73
2021/05/11 12:42:12;;;;;;;5.88;1.80;;;;;;;16.67;70.62;99434.81;5057544;28;20049;-74
2021/05/11 12:44:39;;;;;;;8.10;1.95;;;;;;;16.63;69.53;99431.56;5055709;28;20135;-73
2021/05/11 12:47:06;;;;;;;7.30;2.15;;;;;;;16.61;66.58;99430.84;5056230;28;20057;-74
2021/05/11 12:49:33;;;;;;;5.95;1.88;;;;;;;16.66;67.21;99417.78;5056595;28;20449;-74
2021/05/11 12:52:00;;;;;;;5.00;1.75;;;;;;;16.67;66.27;99419.47;5057041;28;20056;-74
2021/05/11 12:54:52;;;;;;;7.25;2.15;;;;;;;16.62;66.84;99419.06;5056381;28;20090;-74
2021/05/11 12:57:40;;;;;;;7.93;1.60;;;;;;;16.78;65.70;99422.97;5057311;28;20045;-74
2021/05/11 13:22:24;;;;;;;7.30;1.30;;;;;;;16.79;65.24;99411.19;5036477;28;20056;-74
2021/05/11 13:35:22;;;;;;;4.70;1.70;;;;;;;17.45;62.33;99402.84;5036733;28;20115;-74
2021/05/11 13:37:49;;;;;;;4.65;1.30;;;;;;;17.47;64.72;99414.31;5036741;28;20053;-77
2021/05/11 13:40:16;;;;;;;4.07;1.30;;;;;;;17.55;63.83;99421.66;5035104;28;20089;-76
2021/05/11 13:42:42;;;;;;;3.90;1.48;;;;;;;17.47;63.01;99433.22;5036818;28;20374;-76
2021/05/11 13:45:09;;;;;;;4.43;1.48;;;;;;;17.22;65.37;99424.94;5035582;28;20056;-75
2021/05/11 13:47:39;;;;;;;5.25;1.73;;;;;;;17.21;69.22;99423.25;5034897;28;20156;-79
2021/05/11 13:50:07;;;;;;;4.75;1.70;;;;;;;16.95;66.89;99430.19;5035657;28;20427;-75
2021/05/11 13:52:34;;;;;;;9.50;2.90;;;;;;;16.92;66.82;99418.88;5036607;28;20052;-73
2021/05/11 13:55:07;;;;;;;6.93;2.30;;;;;;;16.92;65.54;99417.03;5036441;28;20056;-75
2021/05/11 14:01:34;;;;;;;4.63;1.88;;;;;;;16.91;68.78;99412.66;5036389;28;20107;-75
2021/05/11 14:03:06;;;;;;;3.40;1.70;;;;;;;17.11;65.19;99404.44;5036092;28;20049;-72
2021/05/11 14:05:33;;;;;;;4.82;1.90;;;;;;;17.09;65.04;99391.13;5035867;28;20438;-73
2021/05/11 14:07:59;;;;;;;6.78;1.55;;;;;;;17.28;65.09;99397.34;5034907;28;20045;-74
2021/05/11 14:10:26;;;;;;;4.10;1.50;;;;;;;17.37;62.28;99380.22;5035991;28;20053;-74
2021/05/11 14:12:54;;;;;;;4.10;1.10;;;;;;;17.34;60.74;99388.59;5034791;28;20085;-72
2021/05/11 14:15:20;;;;;;;2.95;1.17;;;;;;;17.36;60.61;99391.16;5054864;28;20068;-73
2021/05/11 14:17:47;;;;;;;6.35;1.20;;;;;;;17.27;63.34;99398.31;5056201;28;20123;-73
2021/05/11 14:20:14;;;;;;;5.80;1.65;;;;;;;17.37;63.91;99403.63;5056094;28;20057;-75
2021/05/11 14:22:41;;;;;;;4.50;1.30;;;;;;;17.46;63.21;99396.44;5055868;28;20396;-75
2021/05/11 14:25:11;;;;;;;2.05;0.85;;;;;;;17.56;61.56;99401.75;5056077;28;20053;-75
2021/05/11 14:27:37;;;;;;;6.03;1.00;;;;;;;17.37;60.69;99399.09;5056009;28;20106;-74
2021/05/11 14:30:05;;;;;;;4.20;0.90;;;;;;;17.46;62.68;99400.00;5055758;28;20407;-75
2021/05/11 14:32:32;;;;;;;3.70;1.08;;;;;;;17.47;62.53;99390.91;5055188;28;20449;-74
2021/05/11 14:34:58;;;;;;;3.50;1.00;;;;;;;17.66;60.18;99389.00;5037833;28;20076;-75
2021/05/11 14:37:25;;;;;;;3.63;1.40;;;;;;;17.56;60.44;99372.06;5055083;28;20382;-74
2021/05/11 14:39:52;;;;;;;5.45;1.75;;;;;;;17.51;61.56;99367.16;5055078;28;20053;-74
2021/05/11 14:42:21;;;;;;;7.30;1.77;;;;;;;17.63;62.96;99373.13;5055084;28;20438;-75
2021/05/11 14:44:52;;;;;;;3.35;1.50;;;;;;;17.69;61.24;99383.28;5053949;28;20362;-75
2021/05/11 14:47:18;;;;;;;;;;;;;;;17.88;62.84;99379.50;5055933;28;20327;-75
2021/05/11 14:49:45;;;;;;;6.38;1.80;;;;;;;17.94;61.45;99378.03;5055127;28;19943;-75
2021/05/11 14:52:13;;;;;;;4.70;2.05;;;;;;;17.94;62.51;99394.25;5054271;28;20118;-74
2021/05/11 14:54:40;;;;;;;5.57;2.35;;;;;;;17.80;60.96;99401.06;5054685;28;20119;-73
2021/05/11 14:57:07;;;;;;;5.43;2.20;;;;;;;17.57;63.02;99407.00;5054860;28;20076;-74
2021/05/11 14:59:34;;;;;;;7.18;2.45;;;;;;;17.33;63.47;99405.78;5054021;28;20053;-74
2021/05/11 15:02:01;;;;;;;5.70;2.22;;;;;;;17.38;65.06;99413.44;5052667;28;20063;-74
2021/05/11 15:04:28;;;;;;;5.28;2.28;;;;;;;17.29;64.64;99407.13;5053726;28;20106;-74
2021/05/11 15:06:54;;;;;;;4.47;2.38;;;;;;;17.23;65.74;99418.53;5054524;28;20119;-75
2021/05/11 15:09:22;;;;;;;5.00;2.55;;;;;;;17.01;65.39;99415.28;5054808;28;20135;-74
2021/05/11 15:11:49;;;;;;;6.45;2.47;;;;;;;17.10;64.79;99413.53;5053157;28;20049;-74
2021/05/11 15:14:16;;;;;;;6.32;2.83;;;;;;;17.01;65.67;99417.97;5053463;28;20462;-74
2021/05/11 15:16:45;;;;;;;5.82;2.63;;;;;;;16.96;66.45;99429.19;5054645;28;20048;-73
2021/05/11 15:19:12;;;;;;;8.27;2.70;;;;;;;16.88;68.45;99431.00;5036409;28;20049;-74
2021/05/11 15:21:40;;;;;;;7.97;2.80;;;;;;;16.81;68.90;99430.72;5017364;28;20053;-74
2021/05/11 15:24:09;;;;;;;7.25;3.30;;;;;;;16.74;67.02;99435.91;5033830;28;20500;-74
2021/05/11 15:26:37;;;;;;;10.90;3.47;;;;;;;16.76;68.25;99430.34;5035051;28;20077;-74
2021/05/11 15:29:06;;;;;;;8.32;2.95;;;;;;;16.65;68.80;99443.03;5034851;28;20049;-74
2021/05/11 15:31:33;;;;;;;14.25;3.10;;;;;;;16.61;67.69;99430.03;5034596;28;20056;-74
2021/05/11 15:34:00;;;;;;;10.20;2.50;;;;;;;16.54;66.92;99438.72;5034984;28;20049;-74
2021/05/11 15:36:36;;;;;;;5.57;1.92;;;;;;;16.48;66.79;99443.84;5034833;28;20053;-74
2021/05/11 15:39:03;;;;;;;8.27;2.22;;;;;;;16.39;66.25;99453.66;5033719;28;20130;-74
2021/05/11 15:41:29;;;;;;;9.07;2.30;;;;;;;16.44;64.94;99451.38;5034779;28;20053;-74
2021/05/11 15:43:56;;;;;;;6.05;2.03;;;;;;;16.37;65.50;99431.41;5034607;28;20057;-73
2021/05/11 15:46:23;;;;;;;6.35;2.20;;;;;;;16.40;65.68;99452.69;5034243;28;20149;-74
2021/05/11 15:48:49;;;;;;;5.95;2.03;;;;;;;16.38;64.07;99446.56;5033649;28;20053;-74
2021/05/11 15:51:17;;;;;;;6.72;1.90;;;;;;;16.29;64.73;99443.78;5033570;28;20057;-73
2021/05/11 15:53:44;;;;;;;10.10;2.10;;;;;;;16.31;66.31;99454.41;5034444;28;20045;-74
2021/05/11 15:56:10;;;;;;;5.95;2.15;;;;;;;16.34;64.50;99446.03;5034546;28;20046;-74
2021/05/11 15:58:38;;;;;;;9.80;2.25;;;;;;;16.31;66.55;99446.34;5034234;28;20084;-74
2021/05/11 16:01:04;;;;;;;6.80;2.60;;;;;;;16.38;66.78;99442.03;5034524;28;20054;-74
2021/05/11 16:03:31;;;;;;;7.15;2.13;;;;;;;16.41;67.63;99430.97;5036538;28;20119;-73
2021/05/11 16:05:58;;;;;;;9.90;2.05;;;;;;;16.42;67.20;99434.50;5038067;28;20057;-73
2021/05/11 16:08:27;;;;;;;6.90;2.10;;;;;;;16.36;68.30;99435.97;5038149;28;20057;-74
2021/05/11 16:10:53;;;;;;;6.40;2.10;;;;;;;16.45;67.07;99427.97;5036950;28;20303;-74
2021/05/11 16:13:22;;;;;;;8.18;2.17;;;;;;;16.46;68.00;99424.28;5036774;28;20076;-74
2021/05/11 16:15:50;;;;;;;7.90;2.40;;;;;;;16.53;64.90;99428.94;5037772;28;20057;-73
2021/05/11 16:18:18;;;;;;;12.43;2.70;;;;;;;16.58;65.88;99438.41;5037942;28;20057;-73
2021/05/11 16:20:45;;;;;;;6.72;2.95;;;;;;;16.58;65.03;99430.31;5037360;28;20053;-73
2021/05/11 16:23:12;;;;;;;5.93;2.13;;;;;;;16.65;65.60;99432.25;5038301;28;20045;-73